Time;durP1;ratioP1;P1;durP2;ratioP2;P2;SDS_P1;SDS_P2;PMS_P1;PMS_P2;Temp;Humidity;BMP_temperature;BMP_pressure;BME280_temperature;BME280_humidity;BME280_pressure;Samples;Min_cycle;Max_cycle;Signal;HPM_P1;HPM_P2
2021/11/12 00:03:11;;;;;;;43.33;29.53;;;10.10;99.90;;;;;;4963108;28;20475;-52
2021/11/12 00:13:52;;;;;;;46.23;29.70;;;10.20;99.90;;;;;;4975277;28;20460;-51
2021/11/12 00:16:24;;;;;;;43.60;29.23;;;10.20;99.90;;;;;;4975349;28;20423;-52
2021/11/12 00:18:51;;;;;;;48.30;29.07;;;10.00;99.90;;;;;;4974857;28;20937;-51
2021/11/12 00:21:19;;;;;;;47.67;28.97;;;10.10;99.90;;;;;;4975056;28;20907;-51
2021/11/12 00:23:46;;;;;;;47.67;30.27;;;9.90;99.90;;;;;;4974875;28;20437;-51
2021/11/12 00:26:14;;;;;;;47.33;29.67;;;10.00;99.90;;;;;;4975060;28;20456;-52
2021/11/12 00:28:49;;;;;;;53.10;32.40;;;9.70;99.90;;;;;;4974754;28;20442;-52
2021/11/12 00:31:23;;;;;;;45.10;29.87;;;10.00;99.90;;;;;;4974962;28;20906;-52
2021/11/12 00:34:07;;;;;;;47.13;30.17;;;10.30;99.90;;;;;;4974898;28;20424;-52
2021/11/12 00:36:40;;;;;;;52.07;30.90;;;10.10;99.90;;;;;;4974371;28;20409;-51
2021/11/12 00:39:11;;;;;;;51.20;29.73;;;10.10;99.90;;;;;;4974487;28;20430;-51
2021/11/12 00:41:41;;;;;;;54.30;31.10;;;10.00;99.90;;;;;;4974945;28;20454;-51
2021/11/12 00:44:17;;;;;;;52.17;31.40;;;10.20;99.90;;;;;;4974568;28;20497;-50
2021/11/12 00:46:49;;;;;;;44.80;30.67;;;10.10;99.90;;;;;;4974783;28;20861;-49
2021/11/12 00:49:19;;;;;;;52.67;30.30;;;10.30;99.90;;;;;;4974442;28;20492;-51
2021/11/12 00:51:48;;;;;;;43.17;29.37;;;10.20;99.90;;;;;;4973282;28;20488;-52
2021/11/12 00:54:16;;;;;;;50.27;29.97;;;9.70;99.90;;;;;;4974671;28;20437;-51
2021/11/12 00:56:44;;;;;;;46.13;29.50;;;9.70;99.90;;;;;;4974509;28;20439;-52
2021/11/12 00:59:11;;;;;;;47.87;30.37;;;10.10;99.90;;;;;;4974223;28;20413;-51
2021/11/12 01:01:39;;;;;;;45.67;29.53;;;10.50;99.90;;;;;;4973050;28;20828;-52
2021/11/12 01:04:09;;;;;;;47.37;30.80;;;9.90;99.90;;;;;;4974516;28;21075;-51
2021/11/12 01:06:36;;;;;;;46.23;28.93;;;9.80;99.90;;;;;;4974797;28;20544;-51
2021/11/12 01:09:05;;;;;;;46.93;29.70;;;10.30;99.90;;;;;;4979759;28;20438;-51
2021/11/12 01:11:32;;;;;;;51.07;31.10;;;10.10;99.90;;;;;;4974753;28;20511;-51
2021/11/12 01:14:01;;;;;;;44.70;28.40;;;10.00;99.90;;;;;;4974362;28;20464;-51
2021/11/12 01:16:28;;;;;;;48.57;29.90;;;10.20;99.90;;;;;;4974179;28;20438;-51
2021/11/12 01:18:55;;;;;;;46.07;29.10;;;10.10;99.90;;;;;;4973753;28;20944;-50
2021/11/12 01:21:22;;;;;;;50.90;30.97;;;9.70;99.90;;;;;;4974001;28;20449;-51
2021/11/12 01:23:53;;;;;;;53.03;29.47;;;9.80;99.90;;;;;;4973711;28;20986;-51
2021/11/12 01:26:20;;;;;;;47.83;28.40;;;10.40;99.90;;;;;;4973805;28;20486;-51
2021/11/12 01:28:47;;;;;;;48.97;30.33;;;10.10;99.90;;;;;;4973569;28;20446;-51
2021/11/12 01:31:15;;;;;;;49.20;30.50;;;10.30;99.90;;;;;;4973940;28;20405;-51
2021/11/12 01:33:43;;;;;;;47.17;29.60;;;10.00;99.90;;;;;;4973872;28;20469;-51
2021/11/12 01:36:23;;;;;;;45.93;29.40;;;10.20;99.90;;;;;;4973837;28;20473;-51
2021/11/12 01:38:50;;;;;;;45.60;30.23;;;10.10;99.90;;;;;;4973552;28;20544;-51
2021/11/12 01:41:17;;;;;;;49.10;29.80;;;10.30;99.90;;;;;;4974018;28;20430;-52
2021/11/12 01:43:47;;;;;;;48.30;30.53;;;10.50;99.90;;;;;;4972822;28;20825;-51
2021/11/12 01:46:27;;;;;;;54.67;28.63;;;9.70;99.90;;;;;;4973898;28;20980;-51
2021/11/12 01:49:06;;;;;;;51.93;29.47;;;10.50;99.90;;;;;;4972661;28;20500;-51
2021/11/12 01:51:40;;;;;;;46.33;29.83;;;9.90;99.90;;;;;;4972380;28;20457;-51
2021/11/12 01:54:25;;;;;;;49.77;31.73;;;10.20;99.90;;;;;;4973594;28;20450;-51
2021/11/12 01:57:11;;;;;;;45.30;28.70;;;10.30;99.90;;;;;;4974040;28;20442;-51
2021/11/12 01:59:38;;;;;;;46.07;28.90;;;10.20;99.90;;;;;;4973217;28;20504;-50
2021/11/12 02:02:08;;;;;;;43.50;28.80;;;10.20;99.90;;;;;;4973352;28;20462;-51
2021/11/12 02:04:36;;;;;;;49.60;27.90;;;10.40;99.90;;;;;;4973297;28;20434;-51
2021/11/12 02:07:03;;;;;;;44.93;27.40;;;10.20;99.90;;;;;;4973215;28;20457;-52
2021/11/12 02:09:30;;;;;;;45.00;27.10;;;10.20;99.90;;;;;;4972871;28;20442;-51
2021/11/12 02:12:02;;;;;;;46.17;28.10;;;10.40;99.90;;;;;;4973120;28;20979;-51
2021/11/12 02:14:30;;;;;;;50.10;28.13;;;10.20;99.90;;;;;;4973199;28;20447;-51
2021/11/12 02:17:02;;;;;;;45.03;27.73;;;10.40;99.90;;;;;;4973156;28;20442;-50
2021/11/12 02:19:31;;;;;;;52.73;30.33;;;10.40;99.90;;;;;;4972717;28;20481;-52
2021/11/12 02:22:06;;;;;;;45.23;27.13;;;9.80;99.90;;;;;;4972887;28;20435;-51
2021/11/12 02:24:37;;;;;;;44.00;26.00;;;10.20;99.90;;;;;;5031509;23;20474;-50
2021/11/12 02:27:06;;;;;;;44.63;27.50;;;10.20;99.90;;;;;;5011975;28;20637;-49
2021/11/12 02:29:33;;;;;;;48.00;26.83;;;10.40;99.90;;;;;;5011641;28;20483;-50
2021/11/12 02:32:00;;;;;;;47.00;29.17;;;10.40;99.90;;;;;;5012263;28;20921;-49
2021/11/12 02:34:26;;;;;;;43.67;27.30;;;10.30;99.90;;;;;;5011808;28;20956;-50
2021/11/12 02:36:54;;;;;;;45.50;28.27;;;9.80;99.90;;;;;;5010529;28;20441;-49
2021/11/12 02:39:23;;;;;;;45.20;26.00;;;9.90;99.90;;;;;;5011667;28;20451;-49
2021/11/12 02:41:50;;;;;;;46.93;28.30;;;10.20;99.90;;;;;;5010622;28;20459;-49
2021/11/12 02:44:19;;;;;;;47.47;27.87;;;9.90;99.90;;;;;;5011938;28;20496;-50
2021/11/12 02:46:45;;;;;;;39.80;24.80;;;10.70;99.90;;;;;;5011734;28;20511;-49
2021/11/12 02:49:12;;;;;;;45.53;26.87;;;10.30;99.90;;;;;;5011216;28;20407;-49
2021/11/12 02:51:39;;;;;;;44.80;26.27;;;10.30;99.90;;;;;;5011640;28;20937;-49
2021/11/12 02:54:09;;;;;;;40.50;25.43;;;10.20;99.90;;;;;;5011662;28;20487;-49
2021/11/12 02:56:37;;;;;;;48.33;26.33;;;10.40;99.90;;;;;;5011749;28;20440;-49
2021/11/12 02:59:06;;;;;;;46.77;27.23;;;10.40;99.90;;;;;;5012655;28;20963;-49
2021/11/12 03:01:37;;;;;;;44.10;26.30;;;10.30;99.90;;;;;;5015532;28;20805;-49
2021/11/12 03:04:05;;;;;;;41.30;24.93;;;10.20;99.90;;;;;;5015395;28;20447;-49
2021/11/12 03:06:33;;;;;;;45.23;25.27;;;10.30;99.90;;;;;;5015324;28;20479;-49
2021/11/12 03:09:03;;;;;;;47.63;27.00;;;10.40;99.90;;;;;;5014959;28;20912;-49
2021/11/12 03:11:30;;;;;;;46.33;26.80;;;10.80;99.90;;;;;;5015424;28;20441;-49
2021/11/12 03:13:59;;;;;;;48.93;28.80;;;10.00;99.90;;;;;;5015279;28;20460;-50
2021/11/12 03:16:25;;;;;;;50.37;29.03;;;10.10;99.90;;;;;;5015229;28;20439;-50
2021/11/12 03:18:54;;;;;;;42.47;26.20;;;10.40;99.90;;;;;;5014797;28;20432;-49
2021/11/12 03:21:24;;;;;;;44.33;28.17;;;10.40;99.90;;;;;;5015184;28;20472;-49
2021/11/12 03:23:56;;;;;;;44.00;27.37;;;10.40;99.90;;;;;;5014945;28;20458;-49
2021/11/12 03:26:30;;;;;;;46.40;28.07;;;10.30;99.90;;;;;;5015089;28;20472;-49
2021/11/12 04:02:28;;;;;;;41.50;25.57;;;10.00;99.90;;;;;;5014469;28;20535;-50
2021/11/12 04:05:10;;;;;;;42.73;25.33;;;10.40;99.90;;;;;;5014536;28;20532;-51
2021/11/12 04:17:07;;;;;;;44.80;27.40;;;10.00;99.90;;;;;;5014175;28;20848;-50
2021/11/12 04:19:13;;;;;;;40.83;25.33;;;10.00;99.90;;;;;;5013594;28;20448;-50
2021/11/12 04:41:14;;;;;;;45.13;25.33;;;10.10;99.90;;;;;;5013802;28;20435;-49
2021/11/12 04:49:37;;;;;;;42.13;24.17;;;9.90;99.90;;;;;;5013478;28;20432;-50
2021/11/12 05:11:50;;;;;;;46.33;26.67;;;9.90;99.90;;;;;;5013209;28;20432;-50
2021/11/12 05:44:42;;;;;;;47.00;24.23;;;10.90;99.90;;;;;;5012381;28;20455;-50
2021/11/12 05:49:59;;;;;;;62.20;28.90;;;10.60;99.90;;;;;;5011708;28;20839;-49
2021/11/12 05:55:08;;;;;;;64.60;29.47;;;10.40;99.90;;;;;;5012043;28;20448;-49
2021/11/12 05:57:38;;;;;;;65.63;30.50;;;10.40;99.90;;;;;;5012383;28;20529;-50
2021/11/12 06:00:07;;;;;;;65.07;30.90;;;10.30;99.90;;;;;;5012294;28;20817;-50
2021/11/12 06:02:33;;;;;;;71.27;32.10;;;10.30;99.90;;;;;;5011845;28;20933;-50
2021/11/12 06:05:00;;;;;;;70.27;30.67;;;10.40;99.90;;;;;;5011951;28;20432;-48
2021/11/12 06:07:28;;;;;;;61.70;29.17;;;9.90;99.90;;;;;;5011844;28;20567;-50
2021/11/12 06:09:55;;;;;;;82.00;32.63;;;10.50;99.90;;;;;;5011411;28;20445;-49
2021/11/12 06:12:22;;;;;;;68.57;31.43;;;10.50;99.90;;;;;;5011780;28;20464;-50
2021/11/12 06:14:50;;;;;;;73.40;33.50;;;10.40;99.90;;;;;;5010651;28;20507;-50
2021/11/12 06:17:17;;;;;;;74.67;32.17;;;10.40;99.90;;;;;;5011858;28;20432;-50
2021/11/12 06:19:43;;;;;;;65.20;29.87;;;10.30;99.90;;;;;;5011264;28;20432;-50
2021/11/12 06:22:10;;;;;;;81.00;32.10;;;10.30;99.90;;;;;;5011278;28;20846;-49
2021/11/12 06:24:38;;;;;;;75.80;32.43;;;10.10;99.90;;;;;;5011752;28;20467;-49
2021/11/12 06:27:05;;;;;;;78.33;32.50;;;9.80;99.90;;;;;;5011104;28;20495;-49
2021/11/12 06:29:32;;;;;;;82.80;31.97;;;10.30;99.90;;;;;;5011029;28;20449;-50
2021/11/12 06:32:01;;;;;;;73.90;33.53;;;9.90;99.90;;;;;;5011477;28;20443;-48
2021/11/12 06:34:28;;;;;;;80.57;32.43;;;10.50;99.90;;;;;;5008994;28;21079;-49
2021/11/12 06:36:55;;;;;;;78.20;31.67;;;10.20;99.90;;;;;;5011357;28;20444;-51
2021/11/12 06:39:21;;;;;;;68.43;31.37;;;10.40;99.90;;;;;;5011075;28;20437;-50
2021/11/12 06:41:57;;;;;;;69.60;30.53;;;10.40;99.90;;;;;;5011024;28;20779;-51
2021/11/12 06:50:15;;;;;;;66.33;28.83;;;10.10;99.90;;;;;;4969242;28;20784;-51
2021/11/12 06:52:43;;;;;;;63.33;29.37;;;10.70;99.90;;;;;;4993777;28;20473;-50
2021/11/12 06:55:12;;;;;;;65.37;30.17;;;10.80;99.90;;;;;;5011024;28;20437;-50
2021/11/12 06:57:41;;;;;;;59.50;30.47;;;10.00;99.90;;;;;;5010346;28;20445;-51
2021/11/12 07:00:11;;;;;;;59.33;28.10;;;10.20;99.90;;;;;;5011154;28;20468;-50
2021/11/12 07:02:39;;;;;;;60.53;30.10;;;10.20;99.90;;;;;;5010886;28;20457;-52
2021/11/12 07:05:06;;;;;;;70.47;30.47;;;10.10;99.90;;;;;;5010980;28;20937;-50
2021/11/12 07:07:33;;;;;;;64.67;31.13;;;10.10;99.90;;;;;;5010668;28;20882;-50
2021/11/12 07:10:00;;;;;;;62.33;31.57;;;10.20;99.90;;;;;;5009235;28;20547;-50
2021/11/12 07:12:27;;;;;;;69.60;31.40;;;10.20;99.90;;;;;;5009400;28;20455;-50
2021/11/12 07:14:53;;;;;;;61.73;31.67;;;10.10;99.90;;;;;;5011209;28;20913;-51
2021/11/12 07:17:21;;;;;;;68.50;30.73;;;10.00;99.90;;;;;;5011039;28;20455;-50
2021/11/12 07:19:49;;;;;;;61.23;31.10;;;9.90;99.90;;;;;;5010796;28;20433;-50
2021/11/12 07:22:16;;;;;;;72.90;34.40;;;10.20;99.90;;;;;;5011064;28;20440;-50
2021/11/12 07:24:43;;;;;;;73.43;33.07;;;9.90;99.90;;;;;;5009395;28;20538;-51
2021/11/12 07:27:10;;;;;;;62.53;31.50;;;9.80;99.90;;;;;;5010232;28;20484;-50
2021/11/12 07:29:39;;;;;;;65.47;31.70;;;9.60;99.90;;;;;;5010386;28;20965;-50
2021/11/12 07:32:07;;;;;;;58.97;29.27;;;9.90;99.90;;;;;;5010927;28;20444;-51
2021/11/12 07:34:34;;;;;;;62.10;30.03;;;9.90;99.90;;;;;;5010698;28;20506;-50
2021/11/12 07:37:06;;;;;;;55.57;28.53;;;10.50;99.90;;;;;;5010601;28;20424;-49
2021/11/12 07:39:49;;;;;;;52.97;29.20;;;10.10;99.90;;;;;;5010005;28;20437;-50
2021/11/12 07:42:22;;;;;;;55.10;29.83;;;10.20;99.90;;;;;;5010530;28;20477;-50
2021/11/12 07:45:03;;;;;;;50.83;28.57;;;10.20;99.90;;;;;;5010820;28;20554;-50
2021/11/12 07:47:30;;;;;;;61.10;30.97;;;10.60;99.90;;;;;;5013770;28;20519;-50
2021/11/12 07:50:00;;;;;;;55.53;30.47;;;10.10;99.90;;;;;;5013645;28;20444;-50
2021/11/12 07:52:30;;;;;;;61.27;32.80;;;10.00;99.90;;;;;;5013501;28;20444;-51
2021/11/12 07:54:59;;;;;;;53.70;30.70;;;10.20;99.90;;;;;;5013937;28;20434;-50
2021/11/12 07:57:26;;;;;;;57.33;30.77;;;10.10;99.90;;;;;;5014017;28;20478;-49
2021/11/12 07:59:53;;;;;;;62.60;31.37;;;10.60;99.90;;;;;;5013949;28;20432;-49
2021/11/12 08:02:20;;;;;;;63.80;33.03;;;10.50;99.90;;;;;;5013861;28;20531;-50
2021/11/12 08:04:48;;;;;;;60.20;31.97;;;10.30;99.90;;;;;;5013651;28;20437;-50
2021/11/12 08:07:15;;;;;;;57.97;32.07;;;10.60;99.90;;;;;;5013868;28;20892;-50
2021/11/12 08:09:51;;;;;;;62.73;33.13;;;10.20;99.90;;;;;;5013586;28;20428;-52
2021/11/12 08:12:21;;;;;;;60.40;32.57;;;10.30;99.90;;;;;;5013778;28;20452;-50
2021/11/12 08:15:01;;;;;;;68.13;34.00;;;10.30;99.90;;;;;;5014102;28;20443;-50
2021/11/12 08:17:35;;;;;;;57.37;34.20;;;10.10;99.90;;;;;;5013654;28;20543;-51
2021/11/12 08:20:08;;;;;;;60.47;33.20;;;10.20;99.90;;;;;;5013345;28;20848;-50
2021/11/12 08:22:39;;;;;;;64.73;34.83;;;10.50;99.90;;;;;;5013184;28;20443;-51
2021/11/12 08:25:15;;;;;;;58.03;33.17;;;10.50;99.90;;;;;;5037614;22;20503;-51
2021/11/12 08:33:13;;;;;;;57.20;30.57;;;10.10;99.90;;;;;;5013145;28;20887;-51
2021/11/12 08:35:54;;;;;;;54.13;30.37;;;10.20;99.90;;;;;;5013110;28;20778;-51
2021/11/12 08:38:27;;;;;;;56.67;30.37;;;9.90;99.90;;;;;;5009920;28;20465;-52
2021/11/12 08:41:02;;;;;;;58.60;31.70;;;10.00;99.90;;;;;;5021632;28;20437;-52
2021/11/12 08:43:32;;;;;;;59.23;31.60;;;10.50;99.90;;;;;;5013030;28;20483;-51
2021/11/12 08:46:06;;;;;;;56.67;32.13;;;10.70;99.90;;;;;;5015777;28;20795;-50
2021/11/12 08:48:41;;;;;;;62.83;34.33;;;11.00;99.90;;;;;;5009637;28;20494;-50
2021/11/12 08:51:12;;;;;;;58.87;31.50;;;9.80;99.90;;;;;;5032842;28;20786;-49
2021/11/12 08:53:40;;;;;;;59.07;31.10;;;10.70;99.90;;;;;;5032593;28;20456;-50
2021/11/12 08:56:12;;;;;;;56.90;31.87;;;10.50;99.90;;;;;;5021278;28;20447;-50
2021/11/12 08:58:40;;;;;;;59.97;32.17;;;10.60;99.90;;;;;;5032016;28;20696;-50
2021/11/12 09:01:06;;;;;;;64.00;34.60;;;10.70;99.90;;;;;;5032652;28;20428;-50
2021/11/12 09:03:33;;;;;;;60.23;32.17;;;10.60;99.90;;;;;;5032439;28;20999;-50
2021/11/12 09:06:00;;;;;;;62.10;30.70;;;10.60;99.90;;;;;;5032254;28;20406;-50
2021/11/12 09:08:27;;;;;;;53.90;31.00;;;10.80;99.90;;;;;;5031516;28;20475;-49
2021/11/12 09:10:54;;;;;;;56.77;31.20;;;10.80;99.90;;;;;;5030737;28;20455;-50
2021/11/12 09:13:24;;;;;;;60.87;29.97;;;11.00;99.90;;;;;;5020210;28;21004;-50
2021/11/12 09:15:53;;;;;;;45.40;26.50;;;10.90;99.90;;;;;;5032013;28;20514;-50
2021/11/12 09:18:22;;;;;;;50.93;28.80;;;11.00;99.90;;;;;;5030687;28;20476;-50
2021/11/12 09:20:50;;;;;;;52.50;28.60;;;11.20;99.90;;;;;;5014233;28;20472;-51
2021/11/12 09:23:19;;;;;;;51.70;27.97;;;10.80;99.90;;;;;;5011951;28;20456;-51
2021/11/12 09:25:45;;;;;;;44.30;25.87;;;11.10;99.90;;;;;;5012067;28;20442;-51
2021/11/12 09:28:13;;;;;;;44.83;23.83;;;11.20;99.90;;;;;;5012115;28;20571;-50
2021/11/12 09:30:42;;;;;;;39.27;22.80;;;11.20;99.90;;;;;;5012478;28;20438;-50
2021/11/12 09:33:10;;;;;;;34.50;22.07;;;11.30;99.90;;;;;;5012311;28;20779;-51
2021/11/12 09:35:37;;;;;;;35.73;20.27;;;11.30;99.90;;;;;;5012445;28;20541;-50
2021/11/12 09:38:04;;;;;;;36.37;21.57;;;11.30;99.90;;;;;;5012163;28;20440;-51
2021/11/12 09:40:31;;;;;;;37.80;23.10;;;11.20;99.90;;;;;;5011830;28;20444;-51
2021/11/12 09:42:59;;;;;;;32.60;21.10;;;11.10;99.90;;;;;;5010487;28;20552;-51
2021/11/12 09:45:26;;;;;;;35.83;20.27;;;11.30;99.90;;;;;;5012037;28;20875;-51
2021/11/12 09:47:54;;;;;;;40.43;22.73;;;11.20;99.90;;;;;;5011293;28;20491;-51
2021/11/12 09:50:25;;;;;;;40.03;22.53;;;11.40;99.90;;;;;;5012054;28;20501;-51
2021/11/12 09:52:53;;;;;;;39.93;22.80;;;11.30;99.90;;;;;;5012073;28;20451;-51
2021/11/12 09:55:21;;;;;;;35.47;21.50;;;11.40;99.90;;;;;;5012026;28;20444;-50
2021/11/12 09:57:49;;;;;;;41.07;23.43;;;11.50;99.90;;;;;;5011746;28;20415;-51
2021/11/12 10:00:18;;;;;;;47.83;24.00;;;11.50;99.90;;;;;;5011939;28;20802;-51
2021/11/12 10:02:49;;;;;;;40.93;25.23;;;11.50;99.90;;;;;;5011754;28;20470;-51
2021/11/12 10:05:32;;;;;;;36.13;22.93;;;11.50;99.90;;;;;;5011863;28;20459;-51
2021/11/12 10:07:59;;;;;;;36.80;22.80;;;11.60;99.90;;;;;;5011262;28;20564;-51
2021/11/12 10:10:26;;;;;;;41.30;23.37;;;11.50;99.90;;;;;;5013711;28;20457;-52
2021/11/12 10:12:54;;;;;;;40.00;22.60;;;11.70;99.90;;;;;;5011067;28;20415;-52
2021/11/12 10:15:24;;;;;;;33.40;21.00;;;11.40;99.90;;;;;;5014405;28;20450;-52
2021/11/12 10:17:53;;;;;;;38.17;23.30;;;11.80;99.90;;;;;;5011291;28;20417;-51
2021/11/12 10:20:23;;;;;;;31.83;20.10;;;11.40;99.90;;;;;;5011647;28;20428;-51
2021/11/12 10:22:52;;;;;;;34.53;22.23;;;11.40;99.90;;;;;;5012253;28;20453;-50
2021/11/12 10:25:20;;;;;;;31.97;22.07;;;11.40;99.90;;;;;;5011922;28;20445;-51
2021/11/12 10:27:51;;;;;;;31.30;21.20;;;11.50;99.90;;;;;;5010852;28;20491;-51
2021/11/12 10:30:20;;;;;;;29.57;20.13;;;11.70;99.90;;;;;;5011392;28;20969;-51
2021/11/12 10:32:47;;;;;;;25.83;18.17;;;11.70;99.90;;;;;;5011340;28;20772;-51
2021/11/12 10:35:23;;;;;;;26.63;18.47;;;11.70;99.90;;;;;;5011545;28;20536;-52
2021/11/12 10:37:51;;;;;;;25.60;18.60;;;11.90;99.90;;;;;;5010923;28;20429;-52
2021/11/12 10:40:20;;;;;;;30.50;19.10;;;11.80;99.90;;;;;;5011099;28;20461;-52
2021/11/12 10:42:50;;;;;;;28.63;19.93;;;11.70;99.90;;;;;;5010991;28;20464;-50
2021/11/12 10:45:19;;;;;;;26.83;17.97;;;11.70;99.90;;;;;;5010731;28;20466;-51
2021/11/12 10:47:48;;;;;;;27.93;17.30;;;11.70;99.90;;;;;;5010467;28;20491;-52
2021/11/12 10:50:16;;;;;;;27.80;16.33;;;11.80;99.90;;;;;;5011018;28;20439;-51
2021/11/12 10:52:45;;;;;;;23.73;17.03;;;11.70;99.90;;;;;;5011172;28;20450;-51
2021/11/12 10:55:14;;;;;;;22.53;17.70;;;11.70;99.90;;;;;;5011378;28;20458;-52
2021/11/12 10:57:48;;;;;;;22.73;16.30;;;11.70;99.90;;;;;;5009368;28;20421;-51
2021/11/12 11:00:19;;;;;;;24.47;17.73;;;11.90;99.90;;;;;;5011296;28;20434;-50
2021/11/12 11:02:48;;;;;;;25.27;17.80;;;11.70;99.90;;;;;;5011609;28;20470;-52
2021/11/12 11:05:19;;;;;;;24.43;18.83;;;11.70;99.90;;;;;;5010929;28;20457;-53
2021/11/12 11:07:53;;;;;;;22.20;17.67;;;11.60;99.90;;;;;;5010213;28;20479;-51
2021/11/12 11:10:24;;;;;;;24.20;16.97;;;11.60;99.90;;;;;;5009249;28;20489;-52
2021/11/12 11:12:51;;;;;;;26.23;20.90;;;11.60;99.90;;;;;;5010801;28;20432;-51
2021/11/12 11:15:26;;;;;;;27.57;19.60;;;11.70;99.90;;;;;;5017763;28;20441;-52
2021/11/12 11:18:19;;;;;;;23.53;17.07;;;11.70;99.90;;;;;;5030245;28;20762;-51
2021/11/12 11:21:04;;;;;;;19.60;15.90;;;11.60;99.90;;;;;;5029080;28;20457;-51
2021/11/12 11:23:42;;;;;;;22.93;16.47;;;11.60;99.90;;;;;;4994731;28;20548;-51
2021/11/12 11:26:10;;;;;;;21.13;17.03;;;11.40;99.90;;;;;;4994670;28;20438;-51
2021/11/12 11:28:38;;;;;;;18.23;14.50;;;11.70;99.90;;;;;;4994410;28;20672;-50
2021/11/12 11:31:08;;;;;;;22.80;16.17;;;11.80;99.90;;;;;;4994644;28;20438;-51
2021/11/12 11:33:36;;;;;;;20.83;14.90;;;11.80;99.90;;;;;;4994728;28;20440;-52
2021/11/12 11:36:05;;;;;;;18.00;14.10;;;11.80;99.90;;;;;;4994587;28;20428;-50
2021/11/12 11:38:36;;;;;;;19.53;15.10;;;11.70;99.90;;;;;;4994611;28;20447;-51
2021/11/12 11:41:05;;;;;;;18.77;13.17;;;11.70;99.90;;;;;;4998567;28;20447;-51
2021/11/12 11:43:33;;;;;;;19.37;14.90;;;11.90;99.90;;;;;;5014198;28;20443;-51
2021/11/12 11:46:03;;;;;;;18.30;14.13;;;11.90;99.90;;;;;;5014336;28;20448;-51
2021/11/12 11:48:36;;;;;;;21.10;16.70;;;12.00;99.90;;;;;;5013614;28;20972;-51
2021/11/12 11:51:04;;;;;;;19.53;15.57;;;12.00;99.90;;;;;;5015084;28;20437;-51
2021/11/12 11:53:38;;;;;;;20.77;15.97;;;11.80;99.90;;;;;;5012466;28;20803;-53
2021/11/12 11:56:14;;;;;;;19.60;14.63;;;12.10;99.90;;;;;;5013692;28;20441;-53
2021/11/12 11:58:43;;;;;;;18.30;14.60;;;12.20;99.90;;;;;;5013423;28;20952;-50
2021/11/12 12:01:12;;;;;;;14.83;12.43;;;12.30;99.90;;;;;;5013523;28;20506;-51
2021/11/12 12:03:39;;;;;;;15.80;12.87;;;12.00;99.90;;;;;;5014158;28;20517;-51
2021/11/12 12:06:09;;;;;;;16.93;14.63;;;11.70;99.90;;;;;;5013957;28;20451;-51
2021/11/12 12:08:48;;;;;;;17.07;13.43;;;11.60;99.90;;;;;;5013382;28;20494;-51
2021/11/12 12:11:20;;;;;;;19.23;14.13;;;12.10;99.90;;;;;;5013479;28;20522;-51
2021/11/12 12:13:47;;;;;;;15.67;13.00;;;12.20;99.90;;;;;;5013368;28;20899;-52
2021/11/12 12:16:23;;;;;;;16.13;12.77;;;12.20;99.90;;;;;;5027810;28;20448;-51
2021/11/12 12:18:50;;;;;;;17.10;13.43;;;12.30;99.90;;;;;;5032686;28;20855;-51
2021/11/12 12:21:33;;;;;;;17.30;13.60;;;12.10;99.90;;;;;;5027911;28;20455;-52
2021/11/12 13:22:21;;;;;;;14.87;10.70;;;12.00;99.90;;;;;;5021377;28;20441;-52
2021/11/12 13:24:53;;;;;;;14.00;11.17;;;11.90;99.90;;;;;;5011618;28;20449;-51
2021/11/12 13:27:28;;;;;;;12.73;9.80;;;12.10;99.90;;;;;;5012006;28;20432;-50
2021/11/12 13:29:56;;;;;;;12.90;9.03;;;11.90;99.90;;;;;;5011610;28;20492;-50
2021/11/12 13:32:22;;;;;;;10.67;8.47;;;11.90;99.90;;;;;;5012040;28;20441;-51
2021/11/12 13:34:49;;;;;;;10.00;8.70;;;11.40;99.90;;;;;;5011760;28;20532;-50
2021/11/12 13:37:19;;;;;;;10.00;7.33;;;11.70;99.90;;;;;;5011319;28;20449;-51
2021/11/12 13:40:00;;;;;;;15.30;9.63;;;11.80;99.90;;;;;;5011287;28;20409;-51
2021/11/12 13:42:26;;;;;;;13.52;9.52;;;11.70;99.90;;;;;;5011637;28;20460;-50
2021/11/12 13:44:54;;;;;;;13.30;9.90;;;11.70;99.90;;;;;;5011860;28;20729;-51
2021/11/12 13:47:23;;;;;;;10.87;8.70;;;11.40;99.90;;;;;;5011553;28;20548;-51
2021/11/12 13:49:52;;;;;;;10.80;9.33;;;11.90;99.90;;;;;;5010630;28;20880;-51
2021/11/12 13:52:25;;;;;;;11.83;8.50;;;11.40;99.90;;;;;;5011581;28;20491;-51
2021/11/12 13:54:55;;;;;;;9.83;8.07;;;11.40;99.90;;;;;;5011388;28;20461;-51
2021/11/12 13:57:24;;;;;;;11.10;8.77;;;11.80;99.90;;;;;;5011823;28;20430;-51
2021/11/12 13:59:54;;;;;;;11.00;9.70;;;11.60;99.90;;;;;;5010735;28;20477;-52
2021/11/12 14:02:23;;;;;;;11.13;8.67;;;11.60;99.90;;;;;;5011522;28;20773;-52
2021/11/12 14:04:50;;;;;;;12.00;9.10;;;11.60;99.90;;;;;;5011239;28;20477;-52
2021/11/12 14:07:18;;;;;;;10.00;7.73;;;11.60;99.90;;;;;;5011453;28;20842;-52
2021/11/12 14:09:45;;;;;;;9.20;6.43;;;11.60;99.90;;;;;;5010672;28;20547;-50
2021/11/12 14:12:13;;;;;;;8.07;6.93;;;11.80;99.90;;;;;;5011517;28;20441;-51
2021/11/12 14:14:43;;;;;;;10.43;7.53;;;11.50;99.90;;;;;;5012979;28;20527;-51
2021/11/12 14:17:23;;;;;;;10.33;8.37;;;11.40;99.90;;;;;;5031094;28;20430;-51
2021/11/12 14:20:06;;;;;;;11.03;8.63;;;11.40;99.90;;;;;;5028751;28;20449;-52
2021/11/12 14:22:45;;;;;;;15.27;9.10;;;11.40;99.90;;;;;;5016563;28;20948;-52
2021/11/12 14:28:17;;;;;;;11.67;8.77;;;11.60;99.90;;;;;;4976112;28;20456;-51
2021/11/12 14:31:11;;;;;;;12.07;9.10;;;11.30;99.90;;;;;;5010694;28;20444;-51
2021/11/12 14:33:48;;;;;;;12.67;9.57;;;11.40;99.90;;;;;;5011124;28;20420;-51
2021/11/12 14:36:27;;;;;;;14.03;9.40;;;11.20;99.90;;;;;;5011150;28;20434;-51
2021/11/12 14:38:57;;;;;;;12.00;9.93;;;11.30;99.90;;;;;;5010645;28;20403;-52
2021/11/12 14:44:24;;;;;;;13.43;9.90;;;11.40;99.90;;;;;;5009641;28;20462;-52
2021/11/12 14:47:14;;;;;;;14.60;10.47;;;11.30;99.90;;;;;;5010808;28;20506;-52
2021/11/12 14:49:46;;;;;;;14.53;11.23;;;11.20;99.90;;;;;;5010759;28;20485;-51
2021/11/12 14:52:16;;;;;;;13.67;10.83;;;11.20;99.90;;;;;;5010692;28;20468;-51
2021/11/12 14:54:46;;;;;;;18.00;11.27;;;11.20;99.90;;;;;;5011614;28;20469;-51
2021/11/12 14:57:24;;;;;;;16.27;10.70;;;11.20;99.90;;;;;;5015089;28;20947;-51
2021/11/12 14:59:54;;;;;;;16.40;11.87;;;11.30;99.90;;;;;;5014616;28;20442;-52
2021/11/12 15:02:20;;;;;;;16.20;11.43;;;11.20;99.90;;;;;;5014778;28;20441;-52
2021/11/12 15:04:47;;;;;;;18.40;13.30;;;11.00;99.90;;;;;;5014952;28;20469;-52
2021/11/12 15:07:21;;;;;;;14.83;11.47;;;11.20;99.90;;;;;;5014796;28;20789;-52
2021/11/12 15:09:49;;;;;;;18.87;11.00;;;11.20;99.90;;;;;;5014688;28;20452;-51
2021/11/12 15:12:16;;;;;;;15.60;11.67;;;11.00;99.90;;;;;;5015170;28;20415;-51
2021/11/12 15:14:43;;;;;;;12.53;11.03;;;11.20;99.90;;;;;;5016851;28;20488;-51
2021/11/12 15:17:11;;;;;;;13.10;10.73;;;11.10;99.90;;;;;;5033521;28;20439;-52
2021/11/12 15:19:41;;;;;;;13.03;11.53;;;10.60;99.90;;;;;;5033781;28;20441;-51
2021/11/12 15:22:16;;;;;;;13.10;10.40;;;10.80;99.90;;;;;;5023830;28;20444;-51
2021/11/12 15:24:58;;;;;;;15.30;11.50;;;10.70;99.90;;;;;;5014140;28;20482;-52
2021/11/12 15:27:46;;;;;;;16.30;12.43;;;10.70;99.90;;;;;;5014146;28;20513;-52
2021/11/12 15:30:18;;;;;;;19.33;12.97;;;10.90;99.90;;;;;;5014423;28;20485;-52
2021/11/12 15:32:48;;;;;;;15.23;12.50;;;10.80;99.90;;;;;;5012614;28;20544;-52
2021/11/12 15:35:17;;;;;;;15.80;12.33;;;11.00;99.90;;;;;;5014216;28;20458;-51
2021/11/12 15:37:48;;;;;;;15.90;12.40;;;10.80;99.90;;;;;;5013581;28;20542;-51
2021/11/12 15:40:21;;;;;;;14.43;12.07;;;10.90;99.90;;;;;;5014027;28;20443;-51
2021/11/12 15:45:51;;;;;;;14.73;12.57;;;10.90;99.90;;;;;;4996148;28;20449;-51
2021/11/12 15:48:19;;;;;;;15.40;11.07;;;10.70;99.90;;;;;;4993979;28;20489;-52
2021/11/12 15:50:54;;;;;;;14.20;10.73;;;10.50;99.90;;;;;;4994610;28;20534;-52
2021/11/12 15:53:23;;;;;;;16.13;11.23;;;10.50;99.90;;;;;;4995026;28;20472;-51
2021/11/12 15:58:45;;;;;;;15.27;11.33;;;10.70;99.90;;;;;;4993961;28;20814;-50
2021/11/12 16:04:36;;;;;;;13.40;11.33;;;10.80;99.90;;;;;;4993021;28;20472;-52
2021/11/12 16:07:17;;;;;;;16.20;11.47;;;11.00;99.90;;;;;;4993142;28;20504;-51
2021/11/12 16:09:50;;;;;;;14.53;11.33;;;10.80;99.90;;;;;;4994104;28;20528;-51
2021/11/12 16:12:28;;;;;;;15.87;12.00;;;10.70;99.90;;;;;;5000537;28;20439;-52
2021/11/12 16:15:07;;;;;;;16.27;12.20;;;10.90;99.90;;;;;;5011642;28;20452;-52
2021/11/12 16:17:58;;;;;;;14.60;11.53;;;10.30;99.90;;;;;;5011120;28;20445;-51
2021/11/12 16:20:40;;;;;;;18.50;12.77;;;10.30;99.90;;;;;;5011588;28;20780;-50
2021/11/12 16:26:01;;;;;;;17.57;12.87;;;10.70;99.90;;;;;;4975729;28;20614;-52